sensor_id;sensor_type;location;lat;lon;timestamp;P1;durP1;ratioP1;P2;durP2;ratioP2
16634;SDS011;8431;52.458;9.998;2023-06-14T00:00:35;4.78;;;4.28;;
16634;SDS011;8431;52.458;9.998;2023-06-14T00:03:07;4.43;;;4.05;;
16634;SDS011;8431;52.458;9.998;2023-06-14T00:05:35;4.40;;;4.03;;
16634;SDS011;8431;52.458;9.998;2023-06-14T00:08:05;4.93;;;4.47;;
16634;SDS011;8431;52.458;9.998;2023-06-14T00:10:33;4.68;;;4.20;;
16634;SDS011;8431;52.458;9.998;2023-06-14T00:13:00;5.75;;;4.65;;
16634;SDS011;8431;52.458;9.998;2023-06-14T00:15:28;4.25;;;3.92;;
16634;SDS011;8431;52.458;9.998;2023-06-14T00:17:56;4.43;;;4.03;;
16634;SDS011;8431;52.458;9.998;2023-06-14T00:20:27;6.93;;;4.32;;
16634;SDS011;8431;52.458;9.998;2023-06-14T00:22:55;4.88;;;4.47;;
16634;SDS011;8431;52.458;9.998;2023-06-14T00:25:23;3.75;;;3.60;;
16634;SDS011;8431;52.458;9.998;2023-06-14T00:27:50;4.90;;;4.07;;
16634;SDS011;8431;52.458;9.998;2023-06-14T00:30:17;4.32;;;4.03;;
16634;SDS011;8431;52.458;9.998;2023-06-14T00:32:44;5.50;;;3.70;;
16634;SDS011;8431;52.458;9.998;2023-06-14T00:35:12;5.10;;;4.63;;
16634;SDS011;8431;52.458;9.998;2023-06-14T00:37:40;5.43;;;3.92;;
16634;SDS011;8431;52.458;9.998;2023-06-14T00:40:08;4.05;;;3.60;;
16634;SDS011;8431;52.458;9.998;2023-06-14T00:42:35;3.72;;;3.50;;
16634;SDS011;8431;52.458;9.998;2023-06-14T00:45:02;4.45;;;4.13;;
16634;SDS011;8431;52.458;9.998;2023-06-14T00:47:29;5.75;;;3.95;;
16634;SDS011;8431;52.458;9.998;2023-06-14T00:49:56;4.07;;;3.88;;
16634;SDS011;8431;52.458;9.998;2023-06-14T00:52:24;5.45;;;4.15;;
16634;SDS011;8431;52.458;9.998;2023-06-14T00:54:52;4.00;;;3.80;;
16634;SDS011;8431;52.458;9.998;2023-06-14T00:57:19;4.85;;;4.03;;
16634;SDS011;8431;52.458;9.998;2023-06-14T00:59:47;4.45;;;4.13;;
16634;SDS011;8431;52.458;9.998;2023-06-14T01:02:15;4.30;;;3.83;;
16634;SDS011;8431;52.458;9.998;2023-06-14T01:04:43;4.30;;;3.90;;
16634;SDS011;8431;52.458;9.998;2023-06-14T01:07:15;4.38;;;4.00;;
16634;SDS011;8431;52.458;9.998;2023-06-14T01:10:05;4.20;;;3.90;;
16634;SDS011;8431;52.458;9.998;2023-06-14T01:12:44;4.60;;;4.10;;
16634;SDS011;8431;52.458;9.998;2023-06-14T01:15:18;4.15;;;3.85;;
16634;SDS011;8431;52.458;9.998;2023-06-14T01:17:47;4.80;;;4.22;;
16634;SDS011;8431;52.458;9.998;2023-06-14T01:20:16;4.15;;;3.95;;
16634;SDS011;8431;52.458;9.998;2023-06-14T01:22:51;4.47;;;4.18;;
16634;SDS011;8431;52.458;9.998;2023-06-14T01:25:19;4.35;;;3.95;;
16634;SDS011;8431;52.458;9.998;2023-06-14T01:27:48;3.92;;;3.60;;
16634;SDS011;8431;52.458;9.998;2023-06-14T01:30:16;4.47;;;3.80;;
16634;SDS011;8431;52.458;9.998;2023-06-14T01:32:44;4.53;;;4.13;;
16634;SDS011;8431;52.458;9.998;2023-06-14T01:35:12;4.15;;;3.72;;
16634;SDS011;8431;52.458;9.998;2023-06-14T01:37:40;3.95;;;3.45;;
16634;SDS011;8431;52.458;9.998;2023-06-14T01:40:10;3.95;;;3.65;;
16634;SDS011;8431;52.458;9.998;2023-06-14T01:42:38;3.90;;;3.70;;
16634;SDS011;8431;52.458;9.998;2023-06-14T01:45:25;4.43;;;4.13;;
16634;SDS011;8431;52.458;9.998;2023-06-14T01:47:53;4.53;;;4.22;;
16634;SDS011;8431;52.458;9.998;2023-06-14T01:50:39;5.68;;;4.55;;
16634;SDS011;8431;52.458;9.998;2023-06-14T01:53:07;4.28;;;4.07;;
16634;SDS011;8431;52.458;9.998;2023-06-14T01:55:55;4.88;;;4.15;;
16634;SDS011;8431;52.458;9.998;2023-06-14T01:58:22;5.25;;;4.30;;
16634;SDS011;8431;52.458;9.998;2023-06-14T02:01:08;4.85;;;4.13;;
16634;SDS011;8431;52.458;9.998;2023-06-14T02:03:37;3.83;;;3.63;;
16634;SDS011;8431;52.458;9.998;2023-06-14T02:06:22;4.53;;;4.10;;
16634;SDS011;8431;52.458;9.998;2023-06-14T02:08:53;5.07;;;4.00;;
16634;SDS011;8431;52.458;9.998;2023-06-14T02:11:40;4.90;;;4.43;;
16634;SDS011;8431;52.458;9.998;2023-06-14T02:14:07;6.15;;;4.03;;
16634;SDS011;8431;52.458;9.998;2023-06-14T02:16:54;5.35;;;4.63;;
16634;SDS011;8431;52.458;9.998;2023-06-14T02:19:21;4.55;;;4.22;;
16634;SDS011;8431;52.458;9.998;2023-06-14T02:21:48;4.55;;;4.28;;
16634;SDS011;8431;52.458;9.998;2023-06-14T02:24:34;4.72;;;4.40;;
16634;SDS011;8431;52.458;9.998;2023-06-14T02:27:04;5.00;;;4.50;;
16634;SDS011;8431;52.458;9.998;2023-06-14T02:29:50;4.55;;;4.25;;
16634;SDS011;8431;52.458;9.998;2023-06-14T02:32:17;4.43;;;4.07;;
16634;SDS011;8431;52.458;9.998;2023-06-14T02:35:03;4.82;;;4.53;;
16634;SDS011;8431;52.458;9.998;2023-06-14T02:37:31;5.18;;;4.45;;
16634;SDS011;8431;52.458;9.998;2023-06-14T02:40:17;4.82;;;4.47;;
16634;SDS011;8431;52.458;9.998;2023-06-14T02:42:47;4.57;;;4.28;;
16634;SDS011;8431;52.458;9.998;2023-06-14T02:45:14;4.55;;;4.25;;
16634;SDS011;8431;52.458;9.998;2023-06-14T02:47:45;4.95;;;4.47;;
16634;SDS011;8431;52.458;9.998;2023-06-14T02:50:30;5.75;;;4.60;;
16634;SDS011;8431;52.458;9.998;2023-06-14T02:52:58;4.80;;;4.35;;
16634;SDS011;8431;52.458;9.998;2023-06-14T02:55:25;4.72;;;4.43;;
16634;SDS011;8431;52.458;9.998;2023-06-14T02:57:54;4.68;;;4.28;;
16634;SDS011;8431;52.458;9.998;2023-06-14T03:00:39;4.90;;;4.50;;
16634;SDS011;8431;52.458;9.998;2023-06-14T03:03:07;4.78;;;4.28;;
16634;SDS011;8431;52.458;9.998;2023-06-14T03:05:57;5.32;;;4.93;;
16634;SDS011;8431;52.458;9.998;2023-06-14T03:08:30;5.20;;;4.18;;
16634;SDS011;8431;52.458;9.998;2023-06-14T03:11:22;4.90;;;4.38;;
16634;SDS011;8431;52.458;9.998;2023-06-14T03:13:51;4.82;;;4.43;;
16634;SDS011;8431;52.458;9.998;2023-06-14T03:16:36;6.20;;;4.43;;
16634;SDS011;8431;52.458;9.998;2023-06-14T03:19:04;5.13;;;4.05;;
16634;SDS011;8431;52.458;9.998;2023-06-14T03:21:49;5.07;;;4.53;;
16634;SDS011;8431;52.458;9.998;2023-06-14T03:24:16;5.20;;;4.80;;
16634;SDS011;8431;52.458;9.998;2023-06-14T03:27:02;4.65;;;4.35;;
16634;SDS011;8431;52.458;9.998;2023-06-14T03:29:31;6.80;;;4.43;;
16634;SDS011;8431;52.458;9.998;2023-06-14T03:32:17;18.25;;;5.15;;
16634;SDS011;8431;52.458;9.998;2023-06-14T03:34:44;15.20;;;5.03;;
16634;SDS011;8431;52.458;9.998;2023-06-14T03:37:29;9.48;;;5.03;;
16634;SDS011;8431;52.458;9.998;2023-06-14T03:39:56;6.00;;;4.45;;
16634;SDS011;8431;52.458;9.998;2023-06-14T03:42:42;5.53;;;4.97;;
16634;SDS011;8431;52.458;9.998;2023-06-14T03:45:11;5.63;;;5.07;;
16634;SDS011;8431;52.458;9.998;2023-06-14T03:47:56;8.25;;;5.00;;
16634;SDS011;8431;52.458;9.998;2023-06-14T03:50:25;5.25;;;4.95;;
16634;SDS011;8431;52.458;9.998;2023-06-14T03:53:11;8.65;;;4.82;;
16634;SDS011;8431;52.458;9.998;2023-06-14T03:55:39;4.80;;;4.50;;
16634;SDS011;8431;52.458;9.998;2023-06-14T03:58:25;6.10;;;5.50;;
16634;SDS011;8431;52.458;9.998;2023-06-14T04:00:54;5.57;;;4.68;;
16634;SDS011;8431;52.458;9.998;2023-06-14T04:03:21;5.70;;;4.47;;
16634;SDS011;8431;52.458;9.998;2023-06-14T04:05:55;5.82;;;4.88;;
16634;SDS011;8431;52.458;9.998;2023-06-14T04:08:43;4.60;;;4.20;;
16634;SDS011;8431;52.458;9.998;2023-06-14T04:11:10;4.05;;;3.85;;
16634;SDS011;8431;52.458;9.998;2023-06-14T04:13:56;4.07;;;3.88;;
16634;SDS011;8431;52.458;9.998;2023-06-14T04:16:25;6.65;;;4.35;;
16634;SDS011;8431;52.458;9.998;2023-06-14T04:19:10;6.35;;;4.20;;
16634;SDS011;8431;52.458;9.998;2023-06-14T04:21:38;4.65;;;4.35;;
16634;SDS011;8431;52.458;9.998;2023-06-14T04:24:23;3.92;;;3.72;;
16634;SDS011;8431;52.458;9.998;2023-06-14T04:26:57;4.18;;;3.90;;
16634;SDS011;8431;52.458;9.998;2023-06-14T04:29:44;3.97;;;3.67;;
16634;SDS011;8431;52.458;9.998;2023-06-14T04:32:16;3.50;;;3.40;;
16634;SDS011;8431;52.458;9.998;2023-06-14T04:35:02;5.22;;;4.22;;
16634;SDS011;8431;52.458;9.998;2023-06-14T04:37:30;5.53;;;4.05;;
16634;SDS011;8431;52.458;9.998;2023-06-14T04:40:17;4.20;;;4.00;;
16634;SDS011;8431;52.458;9.998;2023-06-14T04:42:44;3.95;;;3.75;;
16634;SDS011;8431;52.458;9.998;2023-06-14T04:45:30;3.90;;;3.65;;
16634;SDS011;8431;52.458;9.998;2023-06-14T04:47:59;4.25;;;3.95;;
16634;SDS011;8431;52.458;9.998;2023-06-14T04:50:45;4.50;;;4.15;;
16634;SDS011;8431;52.458;9.998;2023-06-14T04:53:12;8.90;;;4.28;;
16634;SDS011;8431;52.458;9.998;2023-06-14T04:55:57;7.82;;;4.18;;
16634;SDS011;8431;52.458;9.998;2023-06-14T04:58:26;4.10;;;3.85;;
16634;SDS011;8431;52.458;9.998;2023-06-14T05:01:12;3.97;;;3.70;;
16634;SDS011;8431;52.458;9.998;2023-06-14T05:03:40;3.92;;;3.33;;
16634;SDS011;8431;52.458;9.998;2023-06-14T05:06:29;3.88;;;3.58;;
16634;SDS011;8431;52.458;9.998;2023-06-14T05:08:57;3.78;;;3.53;;
16634;SDS011;8431;52.458;9.998;2023-06-14T05:11:36;4.47;;;4.07;;
16634;SDS011;8431;52.458;9.998;2023-06-14T05:14:03;4.00;;;3.70;;
16634;SDS011;8431;52.458;9.998;2023-06-14T05:16:50;4.15;;;3.88;;
16634;SDS011;8431;52.458;9.998;2023-06-14T05:19:18;6.65;;;4.22;;
16634;SDS011;8431;52.458;9.998;2023-06-14T05:22:04;4.05;;;3.60;;
16634;SDS011;8431;52.458;9.998;2023-06-14T05:24:36;6.43;;;4.05;;
16634;SDS011;8431;52.458;9.998;2023-06-14T05:27:22;4.07;;;3.78;;
16634;SDS011;8431;52.458;9.998;2023-06-14T05:29:50;5.25;;;4.00;;
16634;SDS011;8431;52.458;9.998;2023-06-14T05:32:39;6.88;;;3.80;;
16634;SDS011;8431;52.458;9.998;2023-06-14T05:35:08;5.28;;;3.83;;
16634;SDS011;8431;52.458;9.998;2023-06-14T05:37:54;4.35;;;4.00;;
16634;SDS011;8431;52.458;9.998;2023-06-14T05:40:21;4.10;;;3.97;;
16634;SDS011;8431;52.458;9.998;2023-06-14T05:43:07;4.18;;;3.85;;
16634;SDS011;8431;52.458;9.998;2023-06-14T05:45:55;5.80;;;3.90;;
16634;SDS011;8431;52.458;9.998;2023-06-14T05:48:23;4.05;;;3.90;;
16634;SDS011;8431;52.458;9.998;2023-06-14T05:51:10;5.03;;;4.00;;
16634;SDS011;8431;52.458;9.998;2023-06-14T05:53:37;4.13;;;3.83;;
16634;SDS011;8431;52.458;9.998;2023-06-14T05:56:23;4.50;;;4.15;;
16634;SDS011;8431;52.458;9.998;2023-06-14T05:58:51;4.35;;;3.95;;
16634;SDS011;8431;52.458;9.998;2023-06-14T06:01:18;4.55;;;4.15;;
16634;SDS011;8431;52.458;9.998;2023-06-14T06:03:45;4.30;;;3.95;;
16634;SDS011;8431;52.458;9.998;2023-06-14T06:06:14;4.25;;;4.00;;
16634;SDS011;8431;52.458;9.998;2023-06-14T06:08:59;4.90;;;4.60;;
16634;SDS011;8431;52.458;9.998;2023-06-14T06:11:27;4.47;;;4.28;;
16634;SDS011;8431;52.458;9.998;2023-06-14T06:13:54;5.15;;;4.45;;
16634;SDS011;8431;52.458;9.998;2023-06-14T06:16:24;4.72;;;4.35;;
16634;SDS011;8431;52.458;9.998;2023-06-14T06:19:10;4.50;;;4.20;;
16634;SDS011;8431;52.458;9.998;2023-06-14T06:21:38;3.97;;;3.67;;
16634;SDS011;8431;52.458;9.998;2023-06-14T06:24:05;4.25;;;4.00;;
16634;SDS011;8431;52.458;9.998;2023-06-14T06:26:33;8.70;;;4.00;;
16634;SDS011;8431;52.458;9.998;2023-06-14T06:29:19;4.45;;;4.15;;
16634;SDS011;8431;52.458;9.998;2023-06-14T06:31:52;4.40;;;4.13;;
16634;SDS011;8431;52.458;9.998;2023-06-14T06:34:37;5.97;;;4.22;;
16634;SDS011;8431;52.458;9.998;2023-06-14T06:37:06;4.72;;;4.43;;
16634;SDS011;8431;52.458;9.998;2023-06-14T06:39:52;5.88;;;4.78;;
16634;SDS011;8431;52.458;9.998;2023-06-14T06:42:20;4.78;;;4.47;;
16634;SDS011;8431;52.458;9.998;2023-06-14T06:45:06;4.72;;;4.53;;
16634;SDS011;8431;52.458;9.998;2023-06-14T06:47:34;5.57;;;4.30;;
16634;SDS011;8431;52.458;9.998;2023-06-14T06:50:20;4.65;;;4.45;;
16634;SDS011;8431;52.458;9.998;2023-06-14T06:52:49;4.88;;;4.32;;
16634;SDS011;8431;52.458;9.998;2023-06-14T06:55:36;5.50;;;4.03;;
16634;SDS011;8431;52.458;9.998;2023-06-14T06:58:03;4.38;;;4.18;;
16634;SDS011;8431;52.458;9.998;2023-06-14T07:00:49;4.93;;;4.65;;
16634;SDS011;8431;52.458;9.998;2023-06-14T07:03:37;4.55;;;4.35;;
16634;SDS011;8431;52.458;9.998;2023-06-14T07:06:24;4.47;;;4.13;;
16634;SDS011;8431;52.458;9.998;2023-06-14T07:08:53;4.63;;;4.30;;
16634;SDS011;8431;52.458;9.998;2023-06-14T07:11:20;4.38;;;4.10;;
16634;SDS011;8431;52.458;9.998;2023-06-14T07:13:47;3.97;;;3.88;;
16634;SDS011;8431;52.458;9.998;2023-06-14T07:16:14;25.67;;;5.53;;
16634;SDS011;8431;52.458;9.998;2023-06-14T07:18:41;4.80;;;4.50;;
16634;SDS011;8431;52.458;9.998;2023-06-14T07:21:09;4.20;;;4.00;;
16634;SDS011;8431;52.458;9.998;2023-06-14T07:23:36;4.70;;;4.40;;
16634;SDS011;8431;52.458;9.998;2023-06-14T07:26:04;4.50;;;4.20;;
16634;SDS011;8431;52.458;9.998;2023-06-14T07:28:31;5.22;;;4.38;;
16634;SDS011;8431;52.458;9.998;2023-06-14T07:30:58;4.20;;;4.00;;
16634;SDS011;8431;52.458;9.998;2023-06-14T07:33:25;4.82;;;4.30;;
16634;SDS011;8431;52.458;9.998;2023-06-14T07:35:52;7.10;;;4.38;;
16634;SDS011;8431;52.458;9.998;2023-06-14T07:38:19;4.50;;;4.30;;
16634;SDS011;8431;52.458;9.998;2023-06-14T07:40:46;4.28;;;3.97;;
16634;SDS011;8431;52.458;9.998;2023-06-14T07:43:14;4.63;;;4.32;;
16634;SDS011;8431;52.458;9.998;2023-06-14T07:45:41;5.13;;;3.92;;
16634;SDS011;8431;52.458;9.998;2023-06-14T07:48:08;4.93;;;4.10;;
16634;SDS011;8431;52.458;9.998;2023-06-14T07:50:35;4.43;;;4.13;;
16634;SDS011;8431;52.458;9.998;2023-06-14T07:53:02;4.40;;;4.10;;
16634;SDS011;8431;52.458;9.998;2023-06-14T07:55:29;4.40;;;4.15;;
16634;SDS011;8431;52.458;9.998;2023-06-14T07:57:57;4.20;;;3.90;;
16634;SDS011;8431;52.458;9.998;2023-06-14T08:00:26;4.25;;;3.78;;
16634;SDS011;8431;52.458;9.998;2023-06-14T08:02:53;6.35;;;4.30;;
16634;SDS011;8431;52.458;9.998;2023-06-14T08:05:23;4.35;;;4.03;;
16634;SDS011;8431;52.458;9.998;2023-06-14T08:07:51;4.28;;;3.83;;
16634;SDS011;8431;52.458;9.998;2023-06-14T08:10:18;7.88;;;4.07;;
16634;SDS011;8431;52.458;9.998;2023-06-14T08:12:45;5.00;;;4.53;;
16634;SDS011;8431;52.458;9.998;2023-06-14T08:15:13;6.63;;;4.50;;
16634;SDS011;8431;52.458;9.998;2023-06-14T08:17:42;4.72;;;4.38;;
16634;SDS011;8431;52.458;9.998;2023-06-14T08:20:10;5.53;;;4.22;;
16634;SDS011;8431;52.458;9.998;2023-06-14T08:22:38;4.65;;;3.92;;
16634;SDS011;8431;52.458;9.998;2023-06-14T08:25:07;3.92;;;3.72;;
16634;SDS011;8431;52.458;9.998;2023-06-14T08:27:36;6.25;;;4.22;;
16634;SDS011;8431;52.458;9.998;2023-06-14T08:30:03;4.40;;;4.10;;
16634;SDS011;8431;52.458;9.998;2023-06-14T08:32:32;14.60;;;4.20;;
16634;SDS011;8431;52.458;9.998;2023-06-14T08:35:01;3.88;;;3.78;;
16634;SDS011;8431;52.458;9.998;2023-06-14T08:37:28;4.32;;;3.97;;
16634;SDS011;8431;52.458;9.998;2023-06-14T08:39:55;4.28;;;4.05;;
16634;SDS011;8431;52.458;9.998;2023-06-14T08:42:22;4.43;;;3.88;;
16634;SDS011;8431;52.458;9.998;2023-06-14T08:44:51;3.83;;;3.63;;
16634;SDS011;8431;52.458;9.998;2023-06-14T08:47:18;6.15;;;4.90;;
16634;SDS011;8431;52.458;9.998;2023-06-14T08:49:46;4.32;;;4.03;;
16634;SDS011;8431;52.458;9.998;2023-06-14T08:52:15;4.10;;;3.90;;
16634;SDS011;8431;52.458;9.998;2023-06-14T08:54:49;4.60;;;4.30;;
16634;SDS011;8431;52.458;9.998;2023-06-14T08:57:16;4.85;;;4.20;;
16634;SDS011;8431;52.458;9.998;2023-06-14T08:59:46;4.93;;;4.60;;
16634;SDS011;8431;52.458;9.998;2023-06-14T09:02:17;5.35;;;4.95;;
16634;SDS011;8431;52.458;9.998;2023-06-14T09:04:47;4.93;;;4.72;;
16634;SDS011;8431;52.458;9.998;2023-06-14T09:07:17;5.18;;;4.65;;
16634;SDS011;8431;52.458;9.998;2023-06-14T09:09:44;5.03;;;4.57;;
16634;SDS011;8431;52.458;9.998;2023-06-14T09:12:11;4.57;;;4.38;;
16634;SDS011;8431;52.458;9.998;2023-06-14T09:14:38;4.80;;;4.60;;
16634;SDS011;8431;52.458;9.998;2023-06-14T09:17:07;5.00;;;4.70;;
16634;SDS011;8431;52.458;9.998;2023-06-14T09:19:34;5.22;;;4.82;;
16634;SDS011;8431;52.458;9.998;2023-06-14T09:22:02;5.10;;;4.90;;
16634;SDS011;8431;52.458;9.998;2023-06-14T09:24:31;5.60;;;5.28;;
16634;SDS011;8431;52.458;9.998;2023-06-14T09:26:58;4.82;;;4.60;;
16634;SDS011;8431;52.458;9.998;2023-06-14T09:29:25;4.70;;;4.50;;
16634;SDS011;8431;52.458;9.998;2023-06-14T09:31:53;5.45;;;4.75;;
16634;SDS011;8431;52.458;9.998;2023-06-14T09:34:20;5.15;;;4.85;;
16634;SDS011;8431;52.458;9.998;2023-06-14T09:36:48;5.13;;;4.90;;
16634;SDS011;8431;52.458;9.998;2023-06-14T09:39:16;5.07;;;4.72;;
16634;SDS011;8431;52.458;9.998;2023-06-14T09:41:45;77.88;;;9.50;;
16634;SDS011;8431;52.458;9.998;2023-06-14T09:44:12;5.22;;;4.78;;
16634;SDS011;8431;52.458;9.998;2023-06-14T09:46:43;5.40;;;5.10;;
16634;SDS011;8431;52.458;9.998;2023-06-14T09:49:10;5.50;;;5.10;;
16634;SDS011;8431;52.458;9.998;2023-06-14T09:51:41;10.60;;;4.90;;
16634;SDS011;8431;52.458;9.998;2023-06-14T09:54:12;8.75;;;5.63;;
16634;SDS011;8431;52.458;9.998;2023-06-14T09:56:44;5.75;;;5.35;;
16634;SDS011;8431;52.458;9.998;2023-06-14T09:59:13;8.88;;;4.97;;
16634;SDS011;8431;52.458;9.998;2023-06-14T10:01:46;5.63;;;5.07;;
16634;SDS011;8431;52.458;9.998;2023-06-14T10:04:14;22.02;;;5.85;;
16634;SDS011;8431;52.458;9.998;2023-06-14T10:06:45;5.85;;;5.50;;
16634;SDS011;8431;52.458;9.998;2023-06-14T10:09:13;5.90;;;5.43;;
16634;SDS011;8431;52.458;9.998;2023-06-14T10:11:40;5.55;;;5.15;;
16634;SDS011;8431;52.458;9.998;2023-06-14T10:14:10;6.10;;;5.57;;
16634;SDS011;8431;52.458;9.998;2023-06-14T10:16:39;5.85;;;5.55;;
16634;SDS011;8431;52.458;9.998;2023-06-14T10:19:13;5.47;;;5.28;;
16634;SDS011;8431;52.458;9.998;2023-06-14T10:21:58;6.05;;;5.53;;
16634;SDS011;8431;52.458;9.998;2023-06-14T10:24:30;4.82;;;4.60;;
16634;SDS011;8431;52.458;9.998;2023-06-14T10:27:00;4.68;;;4.40;;
16634;SDS011;8431;52.458;9.998;2023-06-14T10:29:28;9.32;;;4.90;;
16634;SDS011;8431;52.458;9.998;2023-06-14T10:31:57;8.90;;;5.30;;
16634;SDS011;8431;52.458;9.998;2023-06-14T10:34:25;9.98;;;5.53;;
16634;SDS011;8431;52.458;9.998;2023-06-14T10:37:00;9.57;;;5.28;;
16634;SDS011;8431;52.458;9.998;2023-06-14T10:39:29;6.97;;;5.30;;
16634;SDS011;8431;52.458;9.998;2023-06-14T10:41:57;6.28;;;5.97;;
16634;SDS011;8431;52.458;9.998;2023-06-14T10:44:35;10.18;;;6.05;;
16634;SDS011;8431;52.458;9.998;2023-06-14T10:47:21;6.22;;;4.80;;
16634;SDS011;8431;52.458;9.998;2023-06-14T10:49:53;7.43;;;5.50;;
16634;SDS011;8431;52.458;9.998;2023-06-14T10:52:23;5.20;;;4.90;;
16634;SDS011;8431;52.458;9.998;2023-06-14T10:57:40;5.97;;;5.47;;
16634;SDS011;8431;52.458;9.998;2023-06-14T11:00:12;4.97;;;4.60;;
16634;SDS011;8431;52.458;9.998;2023-06-14T11:05:50;5.32;;;5.03;;
16634;SDS011;8431;52.458;9.998;2023-06-14T11:08:39;5.60;;;5.13;;
16634;SDS011;8431;52.458;9.998;2023-06-14T11:11:33;5.53;;;5.13;;
16634;SDS011;8431;52.458;9.998;2023-06-14T11:14:03;5.55;;;5.15;;
16634;SDS011;8431;52.458;9.998;2023-06-14T11:16:32;5.53;;;4.68;;
16634;SDS011;8431;52.458;9.998;2023-06-14T11:19:00;5.20;;;4.90;;
16634;SDS011;8431;52.458;9.998;2023-06-14T11:21:28;9.57;;;5.78;;
16634;SDS011;8431;52.458;9.998;2023-06-14T11:23:56;5.93;;;5.40;;
16634;SDS011;8431;52.458;9.998;2023-06-14T11:26:27;5.38;;;5.05;;
16634;SDS011;8431;52.458;9.998;2023-06-14T11:28:55;5.28;;;4.97;;
16634;SDS011;8431;52.458;9.998;2023-06-14T11:31:23;5.68;;;4.85;;
16634;SDS011;8431;52.458;9.998;2023-06-14T11:33:54;7.30;;;5.80;;
16634;SDS011;8431;52.458;9.998;2023-06-14T11:36:22;4.85;;;4.55;;
16634;SDS011;8431;52.458;9.998;2023-06-14T11:38:49;5.25;;;4.85;;
16634;SDS011;8431;52.458;9.998;2023-06-14T11:41:17;5.25;;;4.88;;
16634;SDS011;8431;52.458;9.998;2023-06-14T11:43:44;14.00;;;6.07;;
16634;SDS011;8431;52.458;9.998;2023-06-14T11:46:14;4.88;;;4.55;;
16634;SDS011;8431;52.458;9.998;2023-06-14T11:48:42;5.72;;;5.38;;
16634;SDS011;8431;52.458;9.998;2023-06-14T11:51:11;5.53;;;5.20;;
16634;SDS011;8431;52.458;9.998;2023-06-14T11:53:38;5.25;;;4.65;;
16634;SDS011;8431;52.458;9.998;2023-06-14T11:56:08;5.80;;;5.50;;
16634;SDS011;8431;52.458;9.998;2023-06-14T11:58:45;7.10;;;5.28;;
16634;SDS011;8431;52.458;9.998;2023-06-14T12:01:14;6.93;;;5.65;;
16634;SDS011;8431;52.458;9.998;2023-06-14T12:03:47;8.02;;;4.80;;
16634;SDS011;8431;52.458;9.998;2023-06-14T12:06:16;6.03;;;5.72;;
16634;SDS011;8431;52.458;9.998;2023-06-14T12:08:55;5.60;;;5.20;;
16634;SDS011;8431;52.458;9.998;2023-06-14T12:11:22;5.95;;;5.18;;
16634;SDS011;8431;52.458;9.998;2023-06-14T12:13:49;6.35;;;5.88;;
16634;SDS011;8431;52.458;9.998;2023-06-14T12:16:17;5.57;;;4.97;;
16634;SDS011;8431;52.458;9.998;2023-06-14T12:18:45;6.13;;;5.60;;
16634;SDS011;8431;52.458;9.998;2023-06-14T12:21:11;5.80;;;5.30;;
16634;SDS011;8431;52.458;9.998;2023-06-14T12:23:41;6.00;;;5.60;;
16634;SDS011;8431;52.458;9.998;2023-06-14T12:26:09;6.38;;;5.80;;
16634;SDS011;8431;52.458;9.998;2023-06-14T12:28:39;6.05;;;5.50;;
16634;SDS011;8431;52.458;9.998;2023-06-14T12:31:07;6.18;;;5.68;;
16634;SDS011;8431;52.458;9.998;2023-06-14T12:33:34;6.18;;;5.65;;
16634;SDS011;8431;52.458;9.998;2023-06-14T12:36:02;5.72;;;5.28;;
16634;SDS011;8431;52.458;9.998;2023-06-14T12:38:30;6.45;;;6.05;;
16634;SDS011;8431;52.458;9.998;2023-06-14T12:40:58;5.90;;;5.45;;
16634;SDS011;8431;52.458;9.998;2023-06-14T12:43:26;7.55;;;5.65;;
16634;SDS011;8431;52.458;9.998;2023-06-14T12:45:53;6.32;;;5.88;;
16634;SDS011;8431;52.458;9.998;2023-06-14T12:48:20;6.45;;;5.72;;
16634;SDS011;8431;52.458;9.998;2023-06-14T12:50:47;7.57;;;5.45;;
16634;SDS011;8431;52.458;9.998;2023-06-14T12:53:15;8.40;;;5.10;;
16634;SDS011;8431;52.458;9.998;2023-06-14T12:55:42;5.93;;;5.63;;
16634;SDS011;8431;52.458;9.998;2023-06-14T12:58:10;6.13;;;5.63;;
16634;SDS011;8431;52.458;9.998;2023-06-14T13:00:39;6.40;;;5.43;;
16634;SDS011;8431;52.458;9.998;2023-06-14T13:03:06;7.72;;;5.22;;
16634;SDS011;8431;52.458;9.998;2023-06-14T13:05:34;5.75;;;5.28;;
16634;SDS011;8431;52.458;9.998;2023-06-14T13:08:02;6.50;;;5.55;;
16634;SDS011;8431;52.458;9.998;2023-06-14T13:10:30;7.47;;;5.68;;
16634;SDS011;8431;52.458;9.998;2023-06-14T13:12:57;8.88;;;5.95;;
16634;SDS011;8431;52.458;9.998;2023-06-14T13:15:26;9.13;;;5.88;;
16634;SDS011;8431;52.458;9.998;2023-06-14T13:17:53;5.63;;;5.32;;
16634;SDS011;8431;52.458;9.998;2023-06-14T13:20:20;6.32;;;5.75;;
16634;SDS011;8431;52.458;9.998;2023-06-14T13:22:47;5.82;;;5.47;;
16634;SDS011;8431;52.458;9.998;2023-06-14T13:25:14;6.13;;;5.63;;
16634;SDS011;8431;52.458;9.998;2023-06-14T13:27:41;9.18;;;5.82;;
16634;SDS011;8431;52.458;9.998;2023-06-14T13:30:09;8.82;;;5.55;;
16634;SDS011;8431;52.458;9.998;2023-06-14T13:32:41;5.47;;;5.13;;
16634;SDS011;8431;52.458;9.998;2023-06-14T13:35:08;5.88;;;5.45;;
16634;SDS011;8431;52.458;9.998;2023-06-14T13:37:35;5.65;;;5.35;;
16634;SDS011;8431;52.458;9.998;2023-06-14T13:40:04;7.10;;;5.97;;
16634;SDS011;8431;52.458;9.998;2023-06-14T13:42:35;6.30;;;5.22;;
16634;SDS011;8431;52.458;9.998;2023-06-14T13:45:02;6.50;;;6.10;;
16634;SDS011;8431;52.458;9.998;2023-06-14T13:47:29;5.82;;;5.35;;
16634;SDS011;8431;52.458;9.998;2023-06-14T13:49:58;6.68;;;5.32;;
16634;SDS011;8431;52.458;9.998;2023-06-14T13:52:25;5.65;;;5.15;;
16634;SDS011;8431;52.458;9.998;2023-06-14T13:54:52;7.53;;;6.20;;
16634;SDS011;8431;52.458;9.998;2023-06-14T13:57:19;6.22;;;5.82;;
16634;SDS011;8431;52.458;9.998;2023-06-14T13:59:47;5.80;;;5.40;;
16634;SDS011;8431;52.458;9.998;2023-06-14T14:02:14;5.82;;;5.45;;
16634;SDS011;8431;52.458;9.998;2023-06-14T14:04:41;6.30;;;5.80;;
16634;SDS011;8431;52.458;9.998;2023-06-14T14:07:10;7.53;;;5.65;;
16634;SDS011;8431;52.458;9.998;2023-06-14T14:09:37;5.40;;;4.97;;
16634;SDS011;8431;52.458;9.998;2023-06-14T14:12:04;5.85;;;4.68;;
16634;SDS011;8431;52.458;9.998;2023-06-14T14:14:32;7.68;;;5.00;;
16634;SDS011;8431;52.458;9.998;2023-06-14T14:16:59;8.00;;;7.00;;
16634;SDS011;8431;52.458;9.998;2023-06-14T14:19:26;6.95;;;6.25;;
16634;SDS011;8431;52.458;9.998;2023-06-14T14:21:53;6.15;;;5.65;;
16634;SDS011;8431;52.458;9.998;2023-06-14T14:24:22;7.25;;;5.28;;
16634;SDS011;8431;52.458;9.998;2023-06-14T14:26:48;6.43;;;6.03;;
16634;SDS011;8431;52.458;9.998;2023-06-14T14:29:18;7.30;;;5.70;;
16634;SDS011;8431;52.458;9.998;2023-06-14T14:31:46;9.00;;;6.35;;
16634;SDS011;8431;52.458;9.998;2023-06-14T14:34:13;6.22;;;5.72;;
16634;SDS011;8431;52.458;9.998;2023-06-14T14:36:40;5.93;;;5.43;;
16634;SDS011;8431;52.458;9.998;2023-06-14T14:39:07;6.20;;;5.90;;
16634;SDS011;8431;52.458;9.998;2023-06-14T14:41:36;5.80;;;5.40;;
16634;SDS011;8431;52.458;9.998;2023-06-14T14:44:03;6.95;;;5.80;;
16634;SDS011;8431;52.458;9.998;2023-06-14T14:46:31;6.95;;;6.40;;
16634;SDS011;8431;52.458;9.998;2023-06-14T14:48:58;7.75;;;5.70;;
16634;SDS011;8431;52.458;9.998;2023-06-14T14:51:26;6.90;;;6.30;;
16634;SDS011;8431;52.458;9.998;2023-06-14T14:53:55;7.28;;;6.00;;
16634;SDS011;8431;52.458;9.998;2023-06-14T14:56:22;8.98;;;6.55;;
16634;SDS011;8431;52.458;9.998;2023-06-14T14:58:52;11.80;;;5.82;;
16634;SDS011;8431;52.458;9.998;2023-06-14T15:01:19;6.18;;;5.78;;
16634;SDS011;8431;52.458;9.998;2023-06-14T15:03:46;6.03;;;5.72;;
16634;SDS011;8431;52.458;9.998;2023-06-14T15:06:13;6.80;;;6.20;;
16634;SDS011;8431;52.458;9.998;2023-06-14T15:08:40;5.93;;;5.43;;
16634;SDS011;8431;52.458;9.998;2023-06-14T15:11:07;6.32;;;5.82;;
16634;SDS011;8431;52.458;9.998;2023-06-14T15:13:34;6.18;;;5.72;;
16634;SDS011;8431;52.458;9.998;2023-06-14T15:16:03;5.80;;;5.40;;
16634;SDS011;8431;52.458;9.998;2023-06-14T15:18:30;6.80;;;6.20;;
16634;SDS011;8431;52.458;9.998;2023-06-14T15:20:58;7.32;;;6.15;;
16634;SDS011;8431;52.458;9.998;2023-06-14T15:23:36;5.30;;;4.88;;
16634;SDS011;8431;52.458;9.998;2023-06-14T15:26:23;5.47;;;4.97;;
16634;SDS011;8431;52.458;9.998;2023-06-14T15:29:13;8.05;;;5.60;;
16634;SDS011;8431;52.458;9.998;2023-06-14T15:31:56;7.30;;;4.95;;